LEPA/PMI METAR and TAF weather

Enter ICAO airport designator
Station Type Date Time Source
LEPA METAR 2019/10/15 21:00 UTC NOAA

LEPA 152100Z VRB02KT CAVOK 13/10 Q1020 NOSIG


Station Type Date Time Source
LEPA Decoded METAR 2019/10/15 21:00 UTC NOAA

Palma De Mallorca / Son San Juan, Spain (LEPA) 39-33N 002-44E 8M
Oct 15, 2019 - 05:00 PM EDT / 2019.10.15 2100 UTC
Wind: Variable at 2 MPH (2 KT):0
Visibility: greater than 7 mile(s):0
Temperature: 55 F (13 C)
Dew Point: 50 F (10 C)
Relative Humidity: 81%
Pressure (altimeter): 30.12 in. Hg (1020 hPa)
ob: LEPA 152100Z VRB02KT CAVOK 13/10 Q1020 NOSIG
cycle: 21

Station Type Date Time Source
LEPA TAF 2019/10/15 18:27 UTC NOAA

TAF LEPA 151700Z 1518/1618 34005KT 9999 FEW020 TX24/1612Z TN12/1606Z
BECMG 1608/1610 21008KT

Example: see airport list